createdAt,value
2023-05-01T00:01:55.083Z,2588.00
2023-05-01T00:04:23.860Z,3637.00
2023-05-01T00:06:51.359Z,3849.00
2023-05-01T00:09:19.050Z,3869.33
2023-05-01T00:11:46.052Z,3857.50
2023-05-01T00:14:13.168Z,3827.00
2023-05-01T00:16:40.453Z,3869.00
2023-05-01T00:19:07.332Z,3833.75
2023-05-01T00:21:35.413Z,2130.25
2023-05-01T00:24:02.528Z,3287.25
2023-05-01T00:26:29.502Z,3081.80
2023-05-01T00:28:56.249Z,1956.20
2023-05-01T00:31:24.502Z,3451.25
2023-05-01T00:33:51.307Z,3831.33
2023-05-01T00:36:18.166Z,3881.75
2023-05-01T00:38:46.801Z,16.50
2023-05-01T00:41:13.735Z,596.50
2023-05-01T00:43:40.407Z,3888.50
2023-05-01T00:46:08.004Z,25.75
2023-05-01T00:48:35.375Z,804.25
2023-05-01T00:51:05.554Z,25.75
2023-05-01T00:53:34.122Z,35.67
2023-05-01T00:56:02.308Z,48.67
2023-05-01T00:58:29.760Z,3009.80
2023-05-01T01:00:56.846Z,3177.20
2023-05-01T01:03:23.640Z,3846.75
2023-05-01T01:05:56.042Z,181.33
2023-05-01T01:08:29.178Z,54.80
2023-05-01T01:11:14.187Z,51.25
2023-05-01T01:13:53.423Z,54.75
2023-05-01T01:16:29.013Z,3884.00
2023-05-01T01:19:06.820Z,9.00
2023-05-01T01:21:38.576Z,7.25
2023-05-01T01:24:47.145Z,5.25
2023-05-01T01:27:40.601Z,5.00
2023-05-01T01:30:31.801Z,7.00
2023-05-01T01:33:25.338Z,5.50
2023-05-01T01:36:02.795Z,11.75
2023-05-01T01:38:37.944Z,9.00
2023-05-01T01:41:12.686Z,8.00
2023-05-01T01:43:43.883Z,11.75
2023-05-01T01:46:12.049Z,22.25
2023-05-01T01:48:43.284Z,5.00
2023-05-01T01:51:16.229Z,26.50
2023-05-01T01:53:50.644Z,35.00
2023-05-01T01:56:22.570Z,43.00
2023-05-01T01:58:53.206Z,4.00
2023-05-01T02:01:23.384Z,25.00
2023-05-01T02:04:00.390Z,12.00
2023-05-01T02:06:31.257Z,8.25
2023-05-01T02:08:59.531Z,14.75
2023-05-01T02:11:29.686Z,37.60
2023-05-01T02:14:00.417Z,36.67
2023-05-01T02:16:28.426Z,18.75
2023-05-01T02:18:58.244Z,16.75
2023-05-01T02:21:27.685Z,23.00
2023-05-01T02:23:57.855Z,16.00
2023-05-01T02:26:26.880Z,25.25
2023-05-01T02:28:54.669Z,25.75
2023-05-01T02:31:22.431Z,40.00
2023-05-01T02:33:49.852Z,35.75
2023-05-01T02:36:17.467Z,2912.75
2023-05-01T02:38:45.301Z,25.75
2023-05-01T02:41:16.862Z,35.75
2023-05-01T02:43:48.223Z,26.75
2023-05-01T02:46:17.878Z,56.80
2023-05-01T02:48:46.705Z,6.50
2023-05-01T02:51:15.084Z,3756.50
2023-05-01T02:53:42.970Z,3726.25
2023-05-01T02:56:10.907Z,2135.75
2023-05-01T02:58:39.698Z,23.50
2023-05-01T03:01:07.416Z,4.00
2023-05-01T03:03:35.353Z,2151.75
2023-05-01T03:06:03.054Z,292.50
2023-05-01T03:08:30.644Z,169.00
2023-05-01T03:10:57.942Z,3860.67
2023-05-01T03:13:25.278Z,1752.25
2023-05-01T03:15:55.185Z,3860.67
2023-05-01T03:18:22.728Z,44.67
2023-05-01T03:20:53.880Z,24.50
2023-05-01T03:23:21.381Z,44.00
2023-05-01T03:25:48.732Z,37.00
2023-05-01T03:28:16.152Z,31.75
2023-05-01T03:30:44.585Z,32.25
2023-05-01T03:33:13.448Z,48.33
2023-05-01T03:35:40.731Z,28.50
2023-05-01T03:38:08.672Z,38.67
2023-05-01T03:40:36.076Z,26.00
2023-05-01T03:43:03.430Z,23.25
2023-05-01T03:45:31.647Z,39.00
2023-05-01T03:47:59.677Z,35.67
2023-05-01T03:50:28.716Z,3847.00
2023-05-01T03:52:55.461Z,36.00
2023-05-01T03:55:22.640Z,1097.75
2023-05-01T03:57:49.665Z,1774.75
2023-05-01T04:00:23.158Z,1473.00
2023-05-01T04:02:51.068Z,1337.80
2023-05-01T04:05:18.913Z,35.25
2023-05-01T04:07:48.418Z,242.75
2023-05-01T04:10:16.018Z,657.00
2023-05-01T04:12:43.460Z,38.20
2023-05-01T04:15:13.216Z,2505.25
2023-05-01T04:17:41.883Z,1083.50
2023-05-01T04:20:10.491Z,1456.00
2023-05-01T04:22:38.595Z,27.25
2023-05-01T04:25:09.008Z,2154.00
2023-05-01T04:27:36.312Z,39.33
2023-05-01T04:30:04.505Z,718.25
2023-05-01T04:32:32.594Z,424.80
2023-05-01T04:34:59.987Z,49.80
2023-05-01T04:37:27.342Z,2618.25
2023-05-01T04:39:54.813Z,2171.00
2023-05-01T04:42:23.823Z,23.50
2023-05-01T04:44:50.755Z,44.20
2023-05-01T04:47:18.408Z,29.00
2023-05-01T04:49:45.587Z,25.75
2023-05-01T04:52:13.116Z,6.25
2023-05-01T04:54:40.350Z,35.80
2023-05-01T04:57:07.672Z,15.25
2023-05-01T04:59:36.581Z,11.75
2023-05-01T05:02:04.064Z,47.50
2023-05-01T05:04:30.872Z,50.00
2023-05-01T05:06:58.267Z,514.20
2023-05-01T05:09:25.693Z,2699.80
2023-05-01T05:11:53.332Z,3841.60
2023-05-01T05:14:20.996Z,3671.40
2023-05-01T05:16:50.333Z,2449.20
2023-05-01T05:19:17.998Z,77.40
2023-05-01T05:21:45.425Z,3383.00
2023-05-01T05:24:12.745Z,3128.20
2023-05-01T05:26:40.257Z,2799.00
2023-05-01T05:29:06.871Z,3815.80
2023-05-01T05:31:34.122Z,1841.75
2023-05-01T05:34:02.965Z,64.80
2023-05-01T05:36:31.911Z,1392.60
2023-05-01T05:39:00.028Z,2400.75
2023-05-01T05:41:28.340Z,1638.00
2023-05-01T05:43:55.598Z,3829.50
2023-05-01T05:46:22.800Z,2647.00
2023-05-01T05:48:50.355Z,3828.20
2023-05-01T05:51:18.956Z,3736.00
2023-05-01T05:53:46.254Z,1380.00
2023-05-01T05:56:13.917Z,3786.60
2023-05-01T05:58:41.360Z,3832.80
2023-05-01T06:01:08.603Z,2661.80
2023-05-01T06:03:35.428Z,3285.60
2023-05-01T06:06:03.699Z,3533.60
2023-05-01T06:08:33.750Z,3771.50
2023-05-01T06:11:01.085Z,3788.25
2023-05-01T06:13:28.506Z,3807.20
2023-05-01T06:15:55.911Z,3783.40
2023-05-01T06:18:23.499Z,3283.40
2023-05-01T06:20:51.432Z,3420.75
2023-05-01T06:23:18.755Z,3594.00
2023-05-01T06:25:48.573Z,2310.60
2023-05-01T06:28:15.854Z,3778.00
2023-05-01T06:30:43.327Z,3737.00
2023-05-01T06:33:10.883Z,3567.20
2023-05-01T06:35:39.680Z,3008.00
2023-05-01T06:38:06.631Z,3808.60
2023-05-01T06:40:34.012Z,3766.40
2023-05-01T06:43:02.989Z,3754.40
2023-05-01T06:45:30.676Z,3803.80
2023-05-01T06:47:57.589Z,3799.67
2023-05-01T06:50:25.190Z,3768.40
2023-05-01T06:52:52.900Z,3771.40
2023-05-01T06:55:20.568Z,3743.00
2023-05-01T06:57:47.265Z,3771.50
2023-05-01T07:00:17.610Z,3725.40
2023-05-01T07:02:45.432Z,3754.40
2023-05-01T07:05:12.955Z,3730.00
2023-05-01T07:07:44.652Z,3738.00
2023-05-01T07:10:17.752Z,3780.00
2023-05-01T07:12:44.976Z,3772.80
2023-05-01T07:15:12.347Z,3320.80
2023-05-01T07:17:41.309Z,3734.25
2023-05-01T07:20:09.765Z,3730.00
2023-05-01T07:22:43.024Z,3743.00
2023-05-01T07:25:10.360Z,3746.40
2023-05-01T07:27:37.648Z,3692.60
2023-05-01T07:30:06.479Z,3731.75
2023-05-01T07:32:33.222Z,3776.40
2023-05-01T07:35:01.623Z,1507.75
2023-05-01T07:37:29.252Z,3752.80
2023-05-01T07:39:57.327Z,3721.40
2023-05-01T07:42:24.804Z,3742.80
2023-05-01T07:44:52.189Z,3760.33
2023-05-01T07:47:19.077Z,3759.00
2023-05-01T07:49:46.091Z,3738.00
2023-05-01T07:52:15.151Z,3384.50
2023-05-01T07:54:42.643Z,3763.33
2023-05-01T07:57:10.119Z,3739.80
2023-05-01T07:59:37.967Z,3755.00
2023-05-01T08:02:05.120Z,3746.25
2023-05-01T08:04:32.316Z,3744.60
2023-05-01T08:06:59.484Z,3721.40
2023-05-01T08:09:28.393Z,3713.00
2023-05-01T08:11:56.135Z,3741.40
2023-05-01T08:14:23.439Z,3719.60
2023-05-01T08:16:51.186Z,3690.80
2023-05-01T08:19:18.692Z,3651.00
2023-05-01T08:21:46.085Z,3709.80
2023-05-01T08:24:13.862Z,3713.25
2023-05-01T08:26:42.996Z,3686.20
2023-05-01T08:29:10.606Z,3668.20
2023-05-01T08:31:38.235Z,3660.20
2023-05-01T08:34:05.722Z,3666.00
2023-05-01T08:36:33.148Z,3669.50
2023-05-01T08:39:01.207Z,3669.00
2023-05-01T08:41:29.300Z,3687.40
2023-05-01T08:44:00.936Z,3344.60
2023-05-01T08:46:39.084Z,3717.75
2023-05-01T08:49:09.893Z,3721.25
2023-05-01T08:51:38.226Z,3706.60
2023-05-01T08:54:06.700Z,3691.25
2023-05-01T08:56:36.262Z,3477.40
2023-05-01T08:59:09.408Z,3693.00
2023-05-01T09:01:38.106Z,3244.00
2023-05-01T09:04:08.262Z,3657.00
2023-05-01T09:06:38.053Z,3591.50
2023-05-01T09:09:05.349Z,3477.75
2023-05-01T09:11:33.231Z,3663.00
2023-05-01T09:14:01.882Z,3661.80
2023-05-01T09:16:32.095Z,3632.00
2023-05-01T09:19:00.972Z,3640.60
2023-05-01T09:21:28.544Z,3659.25
2023-05-01T09:23:56.404Z,3605.00
2023-05-01T09:26:23.709Z,3624.00
2023-05-01T09:28:51.541Z,3660.20
2023-05-01T09:31:23.513Z,45.80
2023-05-01T09:33:58.899Z,3647.50
2023-05-01T09:36:27.444Z,3622.60
2023-05-01T09:38:55.223Z,3386.00
2023-05-01T09:41:23.423Z,3570.60
2023-05-01T09:43:52.894Z,3552.33
2023-05-01T09:46:23.516Z,3527.50
2023-05-01T09:48:57.386Z,3542.20
2023-05-01T09:51:27.162Z,3549.60
2023-05-01T09:53:56.103Z,3533.00
2023-05-01T09:56:23.429Z,2831.40
2023-05-01T09:58:52.996Z,3523.40
2023-05-01T10:01:38.710Z,3553.25
2023-05-01T10:04:08.264Z,3572.75
2023-05-01T10:06:36.003Z,3583.75
2023-05-01T10:09:04.616Z,3588.00
2023-05-01T10:11:32.477Z,3616.00
2023-05-01T10:14:07.400Z,3593.80
2023-05-01T10:16:35.435Z,3572.50
2023-05-01T10:19:04.276Z,3552.00
2023-05-01T10:21:34.780Z,3610.50
2023-05-01T10:24:03.736Z,3627.40
2023-05-01T10:26:33.032Z,3597.25
2023-05-01T10:29:02.348Z,3631.50
2023-05-01T10:31:31.326Z,3615.40
2023-05-01T10:34:00.868Z,3608.80
2023-05-01T10:36:36.542Z,2795.00
2023-05-01T10:39:05.813Z,3614.50
2023-05-01T10:42:07.099Z,3622.00
2023-05-01T10:44:34.094Z,3614.50
2023-05-01T10:47:39.609Z,3605.80
2023-05-01T10:50:07.678Z,3633.80
2023-05-01T10:53:07.875Z,3603.00
2023-05-01T10:55:37.132Z,3599.00
2023-05-01T10:58:04.408Z,3614.50
2023-05-01T11:00:31.425Z,3155.00
2023-05-01T11:03:35.346Z,2390.60
2023-05-01T11:06:07.326Z,2529.60
2023-05-01T11:08:35.822Z,3584.00
2023-05-01T11:11:41.806Z,2693.25
2023-05-01T11:14:11.403Z,2638.20
2023-05-01T11:16:46.338Z,3374.60
2023-05-01T11:19:47.502Z,3587.60
2023-05-01T11:22:16.427Z,3579.60
2023-05-01T11:24:43.496Z,3559.00
2023-05-01T11:27:16.176Z,3569.40
2023-05-01T11:29:47.275Z,2849.00
2023-05-01T11:32:22.843Z,3554.40
2023-05-01T11:34:51.571Z,3533.60
2023-05-01T11:37:19.210Z,3523.40
2023-05-01T11:39:51.185Z,3533.00
2023-05-01T11:42:21.815Z,2907.25
2023-05-01T11:45:11.002Z,1704.20
2023-05-01T11:47:38.483Z,2706.80
2023-05-01T11:50:07.182Z,2063.50
2023-05-01T11:52:43.059Z,3584.20
2023-05-01T11:55:11.019Z,3567.60
2023-05-01T11:57:49.348Z,2792.40
2023-05-01T12:00:29.566Z,3572.20
2023-05-01T12:02:59.175Z,2978.40
2023-05-01T12:05:27.149Z,3130.40
2023-05-01T12:08:10.462Z,2177.25
2023-05-01T12:10:40.838Z,3587.60
2023-05-01T12:13:10.350Z,3606.50
2023-05-01T12:15:40.334Z,3591.50
2023-05-01T12:18:08.711Z,3601.20
2023-05-01T12:20:38.391Z,3577.75
2023-05-01T12:23:06.349Z,3576.50
2023-05-01T12:25:34.159Z,3443.80
2023-05-01T12:28:04.616Z,3579.60
2023-05-01T12:30:32.454Z,3581.40
2023-05-01T12:33:09.298Z,3029.25
2023-05-01T12:35:36.639Z,3229.20
2023-05-01T12:38:11.521Z,3574.60
2023-05-01T12:40:40.403Z,3612.50
2023-05-01T12:43:07.944Z,3567.60
2023-05-01T12:45:41.142Z,3559.50
2023-05-01T12:48:16.091Z,3555.25
2023-05-01T12:50:45.417Z,3569.00
2023-05-01T12:53:14.504Z,2167.60
2023-05-01T12:55:46.524Z,2738.00
2023-05-01T12:58:15.353Z,3587.60
2023-05-01T13:00:48.661Z,3401.75
2023-05-01T13:03:24.595Z,3537.00
2023-05-01T13:05:57.591Z,3575.00
2023-05-01T13:08:29.876Z,3561.00
2023-05-01T13:10:58.876Z,3539.00
2023-05-01T13:13:27.856Z,3533.00
2023-05-01T13:16:04.163Z,3536.00
2023-05-01T13:18:43.539Z,3549.60
2023-05-01T13:21:13.006Z,3575.00
2023-05-01T13:23:40.575Z,3546.00
2023-05-01T13:26:08.504Z,3554.40
2023-05-01T13:28:36.098Z,3480.80
2023-05-01T13:31:03.858Z,2940.00
2023-05-01T13:33:32.544Z,3185.20
2023-05-01T13:36:06.272Z,3130.60
2023-05-01T13:38:43.543Z,3553.50
2023-05-01T13:41:15.336Z,2843.00
2023-05-01T13:43:42.807Z,3458.60
2023-05-01T13:46:13.947Z,3576.60
2023-05-01T13:48:42.787Z,3465.25
2023-05-01T13:51:13.086Z,3447.60
2023-05-01T13:53:42.805Z,3551.75
2023-05-01T13:56:11.147Z,3587.50
2023-05-01T13:58:38.700Z,2606.80
2023-05-01T14:01:12.805Z,3591.60
2023-05-01T14:03:42.080Z,3531.50
2023-05-01T14:06:13.638Z,3576.00
2023-05-01T14:08:42.697Z,3557.00
2023-05-01T14:11:10.987Z,2847.00
2023-05-01T14:13:41.206Z,3570.25
2023-05-01T14:16:09.793Z,3597.00
2023-05-01T14:18:41.935Z,3568.50
2023-05-01T14:21:13.849Z,3587.60
2023-05-01T14:23:40.613Z,2977.40
2023-05-01T14:26:07.390Z,3593.50
2023-05-01T14:28:39.439Z,3591.50
2023-05-01T14:31:06.594Z,3492.75
2023-05-01T14:33:33.506Z,3582.25
2023-05-01T14:36:00.887Z,3242.00
2023-05-01T14:38:29.387Z,3511.20
2023-05-01T14:40:56.743Z,3562.75
2023-05-01T14:43:23.641Z,3624.20
2023-05-01T14:45:51.023Z,2651.50
2023-05-01T14:48:22.582Z,3622.00
2023-05-01T14:50:49.919Z,3624.00
2023-05-01T14:53:17.117Z,3629.50
2023-05-01T14:55:45.469Z,3630.40
2023-05-01T14:58:12.206Z,3617.20
2023-05-01T15:00:38.827Z,3634.00
2023-05-01T15:03:05.845Z,3641.50
2023-05-01T15:05:32.731Z,3684.20
2023-05-01T15:07:59.423Z,3665.50
2023-05-01T15:10:26.414Z,3653.50
2023-05-01T15:12:54.901Z,3227.40
2023-05-01T15:15:21.630Z,3665.00
2023-05-01T15:17:48.779Z,3685.00
2023-05-01T15:20:18.206Z,3689.00
2023-05-01T15:22:44.930Z,3649.00
2023-05-01T15:25:11.892Z,3655.40
2023-05-01T15:27:38.950Z,3183.50
2023-05-01T15:30:08.643Z,3634.00
2023-05-01T15:32:35.725Z,2731.00
2023-05-01T15:35:02.514Z,3606.50
2023-05-01T15:37:29.456Z,3676.20
2023-05-01T15:39:56.364Z,3668.20
2023-05-01T15:42:23.477Z,3634.20
2023-05-01T15:44:50.591Z,3295.80
2023-05-01T15:47:19.121Z,2720.40
2023-05-01T15:49:45.945Z,2569.00
2023-05-01T15:52:12.772Z,3199.40
2023-05-01T15:54:39.665Z,2540.00
2023-05-01T15:57:07.250Z,3645.50
2023-05-01T15:59:34.040Z,1290.25
2023-05-01T16:02:01.618Z,3611.80
2023-05-01T16:04:30.858Z,3631.75
2023-05-01T16:06:58.643Z,3631.75
2023-05-01T16:09:31.243Z,2324.20
2023-05-01T16:11:59.599Z,2702.50
2023-05-01T16:14:27.439Z,3636.00
2023-05-01T16:16:55.042Z,3644.20
2023-05-01T16:19:23.005Z,3617.00
2023-05-01T16:21:51.935Z,3276.50
2023-05-01T16:24:19.996Z,3225.80
2023-05-01T16:26:48.210Z,3652.80
2023-05-01T16:29:16.045Z,3384.75
2023-05-01T16:31:44.195Z,1191.25
2023-05-01T16:34:11.409Z,2918.50
2023-05-01T16:36:40.919Z,3449.40
2023-05-01T16:39:14.298Z,3693.50
2023-05-01T16:41:44.061Z,3716.40
2023-05-01T16:44:11.255Z,3674.60
2023-05-01T16:46:41.177Z,2446.00
2023-05-01T16:49:11.860Z,3677.00
2023-05-01T16:51:40.414Z,3047.25
2023-05-01T16:54:07.403Z,3653.50
2023-05-01T16:56:35.573Z,3627.80
2023-05-01T16:59:02.874Z,3599.40
2023-05-01T17:01:29.954Z,2669.25
2023-05-01T17:03:57.463Z,3649.50
2023-05-01T17:06:24.692Z,2894.00
2023-05-01T17:08:51.532Z,3649.60
2023-05-01T17:11:19.011Z,3276.00
2023-05-01T17:13:47.589Z,2548.60
2023-05-01T17:16:14.780Z,2598.00
2023-05-01T17:18:42.201Z,400.20
2023-05-01T17:21:09.452Z,2614.60
2023-05-01T17:23:36.303Z,3673.40
2023-05-01T17:26:03.182Z,2328.25
2023-05-01T17:28:30.284Z,3692.20
2023-05-01T17:30:59.530Z,3183.00
2023-05-01T17:33:29.705Z,1876.40
2023-05-01T17:35:57.542Z,2419.25
2023-05-01T17:38:26.734Z,1717.80
2023-05-01T17:40:55.124Z,1683.25
2023-05-01T17:43:22.663Z,3242.50
2023-05-01T17:45:50.506Z,3710.00
2023-05-01T17:48:19.694Z,3747.80
2023-05-01T17:50:47.199Z,3591.20
2023-05-01T17:53:14.437Z,3719.80
2023-05-01T17:55:41.852Z,3692.60
2023-05-01T17:58:09.039Z,3351.80
2023-05-01T18:00:38.127Z,3655.60
2023-05-01T18:03:05.176Z,2929.20
2023-05-01T18:05:33.992Z,3751.00
2023-05-01T18:08:00.832Z,2997.75
2023-05-01T18:10:30.586Z,2263.60
2023-05-01T18:12:57.914Z,1030.20
2023-05-01T18:15:25.661Z,3157.00
2023-05-01T18:17:53.495Z,2843.20
2023-05-01T18:20:20.687Z,479.80
2023-05-01T18:22:49.140Z,2918.00
2023-05-01T18:25:16.845Z,3516.60
2023-05-01T18:27:46.261Z,2901.25
2023-05-01T18:30:14.690Z,2123.80
2023-05-01T18:32:48.150Z,1962.40
2023-05-01T18:35:17.309Z,1153.60
2023-05-01T18:37:44.484Z,3723.80
2023-05-01T18:40:13.726Z,1295.20
2023-05-01T18:42:41.652Z,1902.00
2023-05-01T18:45:09.877Z,3626.80
2023-05-01T18:47:37.686Z,1528.60
2023-05-01T18:50:06.515Z,3621.60
2023-05-01T18:52:34.184Z,3732.20
2023-05-01T18:55:01.414Z,639.00
2023-05-01T18:57:30.894Z,2210.80
2023-05-01T18:59:59.403Z,52.60
2023-05-01T19:02:27.755Z,3650.00
2023-05-01T19:04:57.858Z,34.00
2023-05-01T19:07:26.087Z,633.40
2023-05-01T19:09:54.286Z,268.40
2023-05-01T19:12:22.022Z,29.75
2023-05-01T19:14:50.759Z,12.75
2023-05-01T19:17:18.800Z,2680.80
2023-05-01T19:19:46.404Z,3509.25
2023-05-01T19:22:13.910Z,2365.50
2023-05-01T19:24:41.543Z,1535.20
2023-05-01T19:27:09.626Z,2382.00
2023-05-01T19:29:36.601Z,2023.50
2023-05-01T19:32:07.200Z,715.50
2023-05-01T19:34:34.444Z,3216.75
2023-05-01T19:37:01.790Z,976.00
2023-05-01T19:39:29.679Z,2829.25
2023-05-01T19:41:57.215Z,76.20
2023-05-01T19:44:24.892Z,90.80
2023-05-01T19:46:52.409Z,3702.60
2023-05-01T19:49:21.437Z,3187.20
2023-05-01T19:51:50.363Z,420.50
2023-05-01T19:54:17.737Z,3425.25
2023-05-01T19:56:45.532Z,3344.80
2023-05-01T19:59:13.157Z,3702.00
2023-05-01T20:01:40.543Z,447.00
2023-05-01T20:04:07.938Z,900.75
2023-05-01T20:06:37.593Z,2301.60
2023-05-01T20:09:05.009Z,72.20
2023-05-01T20:11:32.984Z,71.40
2023-05-01T20:14:00.438Z,65.25
2023-05-01T20:16:27.813Z,69.60
2023-05-01T20:18:55.141Z,80.00
2023-05-01T20:21:22.426Z,308.40
2023-05-01T20:23:51.571Z,81.00
2023-05-01T20:26:18.340Z,51.50
2023-05-01T20:28:45.658Z,99.40
2023-05-01T20:31:13.644Z,70.25
2023-05-01T20:33:41.045Z,65.20
2023-05-01T20:36:08.305Z,64.40
2023-05-01T20:38:41.073Z,125.80
2023-05-01T20:41:10.248Z,65.40
2023-05-01T20:43:37.994Z,47.33
2023-05-01T20:46:06.172Z,67.75
2023-05-01T20:48:33.616Z,70.00
2023-05-01T20:51:00.861Z,1769.50
2023-05-01T20:53:28.818Z,71.40
2023-05-01T20:55:55.526Z,84.40
2023-05-01T20:58:24.368Z,55.20
2023-05-01T21:00:53.873Z,74.60
2023-05-01T21:03:21.323Z,35.00
2023-05-01T21:05:48.749Z,37.40
2023-05-01T21:08:16.263Z,64.50
2023-05-01T21:10:43.850Z,53.75
2023-05-01T21:13:11.011Z,285.60
2023-05-01T21:15:43.283Z,42.60
2023-05-01T21:18:11.709Z,54.67
2023-05-01T21:20:40.019Z,28.75
2023-05-01T21:23:07.666Z,20.00
2023-05-01T21:25:35.041Z,8.75
2023-05-01T21:28:03.090Z,7.75
2023-05-01T21:30:32.260Z,31.00
2023-05-01T21:33:02.042Z,34.75
2023-05-01T21:35:29.799Z,19.00
2023-05-01T21:37:57.613Z,24.75
2023-05-01T21:40:25.884Z,26.50
2023-05-01T21:42:54.734Z,17.00
2023-05-01T21:45:22.351Z,10.00
2023-05-01T21:47:51.320Z,3.00
2023-05-01T21:50:21.554Z,4.00
2023-05-01T21:52:49.979Z,4.00
2023-05-01T21:55:19.579Z,3.50
2023-05-01T21:57:46.860Z,2.75
2023-05-01T22:00:14.741Z,3.75
2023-05-01T22:02:44.076Z,2.75
2023-05-01T22:05:13.130Z,3.00
2023-05-01T22:07:43.936Z,5.50
2023-05-01T22:10:12.499Z,4.00
2023-05-01T22:12:40.167Z,5.00
2023-05-01T22:15:08.824Z,3.00
2023-05-01T22:17:36.541Z,4.00
2023-05-01T22:20:04.976Z,2.75
2023-05-01T22:22:32.749Z,3.75
2023-05-01T22:25:02.441Z,4.00
2023-05-01T22:27:30.393Z,4.00
2023-05-01T22:29:58.033Z,3.50
2023-05-01T22:32:25.642Z,3.00
2023-05-01T22:34:53.066Z,6.00
2023-05-01T22:37:20.750Z,12.00
2023-05-01T22:39:48.615Z,2.50
2023-05-01T22:42:16.961Z,4.00
2023-05-01T22:44:43.905Z,2.50
2023-05-01T22:47:11.086Z,2.00
2023-05-01T22:49:38.424Z,6.75
2023-05-01T22:52:06.132Z,3.75
2023-05-01T22:54:33.271Z,4.50
2023-05-01T22:57:00.654Z,6.00
2023-05-01T22:59:30.309Z,9.25
2023-05-01T23:01:57.476Z,7.00
2023-05-01T23:04:25.257Z,8.00
2023-05-01T23:06:53.385Z,7.00
2023-05-01T23:09:20.728Z,3.50
2023-05-01T23:11:48.768Z,8.75
2023-05-01T23:14:17.689Z,6.50
2023-05-01T23:16:46.547Z,7.50
2023-05-01T23:19:20.256Z,8.00
2023-05-01T23:21:48.806Z,9.00
2023-05-01T23:24:17.011Z,8.00
2023-05-01T23:26:45.076Z,42.50
2023-05-01T23:29:13.114Z,11.00
2023-05-01T23:31:46.735Z,8.25
2023-05-01T23:34:16.948Z,10.00
2023-05-01T23:36:45.718Z,33.75
2023-05-01T23:39:13.852Z,7.00
2023-05-01T23:41:41.470Z,19.75
2023-05-01T23:44:09.529Z,10.75
2023-05-01T23:46:37.482Z,5.00
2023-05-01T23:49:06.394Z,23.50
2023-05-01T23:51:33.316Z,7.75
2023-05-01T23:54:00.516Z,6.50
2023-05-01T23:56:27.738Z,7.25
2023-05-01T23:58:55.586Z,7.50
